地図

経路データ

SID SEASON NUMBER BASIN SUBBASIN NAME ISO_TIME NATURE LAT LON WMO_WIND WMO_PRES WMO_AGENCY TRACK_TYPE DIST2LAND LANDFALL IFLAG USA_AGENCY USA_ATCF_ID USA_LAT USA_LON USA_RECORD USA_STATUS USA_WIND USA_PRES USA_SSHS USA_R34_NE USA_R34_SE USA_R34_SW USA_R34_NW USA_R50_NE USA_R50_SE USA_R50_SW USA_R50_NW USA_R64_NE USA_R64_SE USA_R64_SW USA_R64_NW USA_POCI USA_ROCI USA_RMW USA_EYE TOKYO_LAT TOKYO_LON TOKYO_GRADE TOKYO_WIND TOKYO_PRES TOKYO_R50_DIR TOKYO_R50_LONG TOKYO_R50_SHORT TOKYO_R30_DIR TOKYO_R30_LONG TOKYO_R30_SHORT TOKYO_LAND CMA_LAT CMA_LON CMA_CAT CMA_WIND CMA_PRES HKO_LAT HKO_LON HKO_CAT HKO_WIND HKO_PRES NEWDELHI_LAT NEWDELHI_LON NEWDELHI_GRADE NEWDELHI_WIND NEWDELHI_PRES NEWDELHI_CI NEWDELHI_DP NEWDELHI_POCI REUNION_LAT REUNION_LON REUNION_TYPE REUNION_WIND REUNION_PRES REUNION_TNUM REUNION_CI REUNION_RMW REUNION_R34_NE REUNION_R34_SE REUNION_R34_SW REUNION_R34_NW REUNION_R50_NE REUNION_R50_SE REUNION_R50_SW REUNION_R50_NW REUNION_R64_NE REUNION_R64_SE REUNION_R64_SW REUNION_R64_NW BOM_LAT BOM_LON BOM_TYPE BOM_WIND BOM_PRES BOM_TNUM BOM_CI BOM_RMW BOM_R34_NE BOM_R34_SE BOM_R34_SW BOM_R34_NW BOM_R50_NE BOM_R50_SE BOM_R50_SW BOM_R50_NW BOM_R64_NE BOM_R64_SE BOM_R64_SW BOM_R64_NW BOM_ROCI BOM_POCI BOM_EYE BOM_POS_METHOD BOM_PRES_METHOD NADI_LAT NADI_LON NADI_CAT NADI_WIND NADI_PRES WELLINGTON_LAT WELLINGTON_LON WELLINGTON_WIND WELLINGTON_PRES DS824_LAT DS824_LON DS824_STAGE DS824_WIND DS824_PRES TD9636_LAT TD9636_LON TD9636_STAGE TD9636_WIND TD9636_PRES TD9635_LAT TD9635_LON TD9635_WIND TD9635_PRES TD9635_ROCI NEUMANN_LAT NEUMANN_LON NEUMANN_CLASS NEUMANN_WIND NEUMANN_PRES MLC_LAT MLC_LON MLC_CLASS MLC_WIND MLC_PRES USA_GUST BOM_GUST BOM_GUST_PER REUNION_GUST REUNION_GUST_PER USA_SEAHGT USA_SEARAD_NE USA_SEARAD_SE USA_SEARAD_SW USA_SEARAD_NW STORM_SPEED STORM_DIR
2006094S08087 2006 20 SI MM ELIA 2006-04-03 12:00:00 TS -8.40000 86.5000 main 1565 1555 O___________O_ jtwc_sh SH222006 -8.40000 86.5000 DB 15 1006 -3 -8.40000 86.5000 TC 15 2 66
2006094S08087 2006 20 SI MM ELIA 2006-04-03 15:00:00 TS -8.35001 86.6100 main 1555 1540 P___________P_ SH222006 -8.35001 86.6100 DB 15 1006 -3 -8.35001 86.6100 TC 15 2 63
2006094S08087 2006 20 SI MM ELIA 2006-04-03 18:00:00 TS -8.30000 86.7000 main 1540 1531 O___________O_ jtwc_sh SH222006 -8.30000 86.7000 DB 15 1006 -3 -8.30000 86.7000 TC 15 2 56
2006094S08087 2006 20 SI MM ELIA 2006-04-03 21:00:00 TS -8.25000 86.7575 main 1525 1525 P___________P_ SH222006 -8.25000 86.7575 DB 15 1006 -3 -8.25000 86.7575 TC 15 1 43
2006094S08087 2006 20 SI MM ELIA 2006-04-04 00:00:00 TS -8.20000 86.8000 main 1525 1525 O___________O_ jtwc_sh SH222006 -8.20000 86.8000 DB 15 1006 -3 -8.20000 86.8000 TC 15 1 42
2006094S08087 2006 20 SI MM ELIA 2006-04-04 03:00:00 TS -8.15750 86.8500 main 1515 1510 P___________P_ SH222006 -8.15750 86.8500 DB 17 1005 -3 -8.15750 86.8500 TC 17 1 43
2006094S08087 2006 20 SI MM ELIA 2006-04-04 06:00:00 TS -8.10000 86.9000 main 1510 1495 O___________O_ jtwc_sh SH222006 -8.10000 86.9000 DB 20 1004 -3 -8.10000 86.9000 TC 20 2 38
2006094S08087 2006 20 SI MM ELIA 2006-04-04 09:00:00 TS -8.00750 86.9725 main 1495 1489 P___________P_ SH222006 -8.00750 86.9725 DB 22 1003 -3 -8.00750 86.9725 TC 22 2 27
2006094S08087 2006 20 SI MM ELIA 2006-04-04 12:00:00 TS -7.90000 87.0000 main 1489 1483 O___________O_ jtwc_sh SH222006 -7.90000 87.0000 TD 25 1002 -1 -7.90000 87.0000 TC 25 2 343
2006094S08087 2006 20 SI MM ELIA 2006-04-04 15:00:00 TS -7.80000 86.9225 main 1493 1488 P___________P_ SH222006 -7.80000 86.9225 TD 25 1002 -1 -7.80000 86.9225 TC 25 3 315
2006094S08087 2006 20 SI MM ELIA 2006-04-04 18:00:00 TS -7.70000 86.8000 main 1497 1497 O___________O_ jtwc_sh SH222006 -7.70000 86.8000 TD 25 1002 -1 -7.70000 86.8000 TC 25 3 311
2006094S08087 2006 20 SI MM ELIA 2006-04-04 21:00:00 TS -7.60000 86.6925 main 1502 1502 P___________P_ SH222006 -7.60000 86.6925 TD 25 1002 -1 -7.60000 86.6925 TC 25 3 315
2006094S08087 2006 20 SI MM ELIA 2006-04-05 00:00:00 TS -7.50000 86.6000 main 1506 1501 O___________O_ jtwc_sh SH222006 -7.50000 86.6000 TD 25 1002 -1 -7.50000 86.6000 TC 25 2 322
2006094S08087 2006 20 SI MM ELIA 2006-04-05 03:00:00 TS -7.40750 86.5425 main 1511 1506 P___________P_ SH222006 -7.40750 86.5425 TD 25 1002 -1 -7.40750 86.5425 TC 25 2 333
2006094S08087 2006 20 SI MM ELIA 2006-04-05 06:00:00 TS -7.30000 86.5000 main 1506 1501 O___________O_ jtwc_sh SH222006 -7.30000 86.5000 TD 25 1002 -1 -7.30000 86.5000 TC 25 3 344
2006094S08087 2006 20 SI MM ELIA 2006-04-05 09:00:00 TS -7.14999 86.4650 main 1496 1496 P___________P_ SH222006 -7.14999 86.4650 TD 25 1002 -1 -7.14999 86.4650 TC 25 3 343
2006094S08087 2006 20 SI MM ELIA 2006-04-05 12:00:00 TS -7.00000 86.4000 main 1499 1491 O___________O_ jtwc_sh SH222006 -7.00000 86.4000 TD 25 1002 -1 -7.00000 86.4000 TC 25 3 326
2006094S08087 2006 20 SI MM ELIA 2006-04-05 15:00:00 TS -6.87000 86.2725 main 1499 1499 P___________P_ SH222006 -6.87000 86.2725 TD 25 1002 -1 -6.87000 86.2725 TC 25 4 304
2006094S08087 2006 20 SI MM ELIA 2006-04-05 18:00:00 TS -6.80000 86.1000 main 1507 1507 O___________O_ jtwc_sh SH222006 -6.80000 86.1000 TD 25 1002 -1 -6.80000 86.1000 TC 25 4 277
2006094S08087 2006 20 SI MM ELIA 2006-04-05 21:00:00 TS -6.82750 85.9075 main 1523 1523 P___________P_ SH222006 -6.82750 85.9075 TD 25 1002 -1 -6.82750 85.9075 TC 25 4 256
2006094S08087 2006 20 SI MM ELIA 2006-04-06 00:00:00 TS -6.90000 85.7000 main 1542 1534 O___________O_ jtwc_sh SH222006 -6.90000 85.7000 TD 25 1002 -1 -6.90000 85.7000 TC 25 5 257
2006094S08087 2006 20 SI MM ELIA 2006-04-06 03:00:00 TS -6.92752 85.4625 main 1534 1530 P___________P_ SH222006 -6.92752 85.4625 TD 25 1002 -1 -6.92752 85.4625 TC 25 4 256
2006094S08087 2006 20 SI MM ELIA 2006-04-06 06:00:00 TS -7.00000 85.3000 main 1536 1536 O___________O_ jtwc_sh SH222006 -7.00000 85.3000 TD 25 1002 -1 -7.00000 85.3000 TC 25 3 213
2006094S08087 2006 20 SI MM ELIA 2006-04-06 09:00:00 TS -7.19996 85.2825 main 1558 1558 P___________P_ SH222006 -7.19996 85.2825 TD 25 1002 -1 -7.19996 85.2825 TC 25 4 167
2006094S08087 2006 20 SI MM ELIA 2006-04-06 12:00:00 TS -7.40000 85.4000 main 1582 1582 O___________O_ jtwc_sh SH222006 -7.40000 85.4000 TD 25 1002 -1 -7.40000 85.4000 TC 25 4 132
2006094S08087 2006 20 SI MM ELIA 2006-04-06 15:00:00 TS -7.48749 85.6050 main 1600 1575 P___________P_ SH222006 -7.48749 85.6050 TD 25 1002 -1 -7.48749 85.6050 TC 25 5 101
2006094S08087 2006 20 SI MM ELIA 2006-04-06 18:00:00 TS -7.50000 85.9000 main 1575 1541 O___________O_ jtwc_sh SH222006 -7.50000 85.9000 TD 25 1002 -1 -7.50000 85.9000 TC 25 6 86
2006094S08087 2006 20 SI MM ELIA 2006-04-06 21:00:00 TS -7.44246 86.2201 main 1541 1501 P___________P_ SH222006 -7.44246 86.2201 TD 25 1002 -1 -7.44246 86.2201 TC 25 7 82
2006094S08087 2006 20 SI MM ELIA 2006-04-07 00:00:00 TS -7.40000 86.6000 main 1501 1462 O___________O_ jtwc_sh SH222006 -7.40000 86.6000 TD 25 1002 -1 -7.40000 86.6000 TC 25 8 90
2006094S08087 2006 20 SI MM ELIA 2006-04-07 03:00:00 TS -7.44752 87.0425 main 1462 1424 P___________P_ SH222006 -7.44752 87.0425 TD 25 1002 -1 -7.44752 87.0425 TC 25 9 103
2006094S08087 2006 20 SI MM ELIA 2006-04-07 06:00:00 TS -7.60000 87.5000 main 1424 1403 O___________O_ jtwc_sh SH222006 -7.60000 87.5000 TD 25 1002 -1 -7.60000 87.5000 TC 25 9 118
2006094S08087 2006 20 SI MM ELIA 2006-04-07 09:00:00 TS -7.89234 87.8775 main 1403 1382 P___________P_ SH222006 -7.89234 87.8775 TD 25 1002 -1 -7.89234 87.8775 TC 25 10 127
2006094S08087 2006 20 SI MM ELIA 2006-04-07 12:00:00 TS -8.20000 88.3000 main 1382 1347 O___________O_ jtwc_sh SH222006 -8.20000 88.3000 TD 25 1002 -1 -8.20000 88.3000 TC 25 11 117
2006094S08087 2006 20 SI MM ELIA 2006-04-07 15:00:00 TS -8.38753 88.8700 main 1338 1290 P___________P_ SH222006 -8.38753 88.8700 TD 25 1003 -1 -8.38753 88.8700 TC 25 12 104
2006094S08087 2006 20 SI MM ELIA 2006-04-07 18:00:00 TS -8.50000 89.5000 main 1290 1244 O___________O_ jtwc_sh SH222006 -8.50000 89.5000 TD 25 1004 -1 -8.50000 89.5000 TC 25 12 98
2006094S08087 2006 20 SI WA ELIA 2006-04-07 21:00:00 TS -8.56483 90.0851 main 1244 1192 P___________P_ SH222006 -8.56483 90.0851 TD 25 1004 -1 -8.56483 90.0851 TC 25 12 95
2006094S08087 2006 20 SI WA ELIA 2006-04-08 00:00:00 TS -8.60000 90.7000 main 1192 1143 O___________O_ jtwc_sh SH222006 -8.60000 90.7000 TD 25 1004 -1 -8.60000 90.7000 TC 25 13 94
2006094S08087 2006 20 SI WA ELIA 2006-04-08 03:00:00 TS -8.65745 91.3850 main 1142 1087 P___________P_ SH222006 -8.65745 91.3850 TD 25 1004 -1 -8.65745 91.3850 TC 25 14 94
2006094S08087 2006 20 SI WA ELIA 2006-04-08 06:00:00 TS -8.70000 92.1000 main 1087 1035 O___________O_ jtwc_sh SH222006 -8.70000 92.1000 TD 25 1004 -1 1008 150 35 -8.70000 92.1000 TC 25 14 93
2006094S08087 2006 20 SI WA ELIA 2006-04-08 09:00:00 TS -8.72245 92.8150 main 1035 986 P___________P_ SH222006 -8.72245 92.8150 TD 25 1004 -1 1008 150 35 -8.72245 92.8150 TC 25 14 90
2006094S08087 2006 20 SI WA ELIA 2006-04-08 12:00:00 TS -8.70000 93.5000 main 986 938 O___________O_ jtwc_sh SH222006 -8.70000 93.5000 TD 25 1004 -1 1008 150 35 -8.70000 93.5000 TC 25 13 85
2006094S08087 2006 20 SI WA ELIA 2006-04-08 15:00:00 TS -8.60743 94.1376 main 938 892 P___________P_ SH222006 -8.60743 94.1376 TD 25 1004 -1 1008 150 37 -8.60743 94.1376 TC 25 12 80
2006094S08087 2006 20 SI WA ELIA 2006-04-08 18:00:00 TS -8.50000 94.7000 main 892 855 O___________O_ jtwc_sh SH222006 -8.50000 94.7000 TD 25 1004 -1 1008 150 40 -8.50000 94.7000 TC 25 11 80
2006094S08087 2006 20 SI WA ELIA 2006-04-08 21:00:00 TS -8.41991 95.1875 main 855 835 P___________P_ SH222006 -8.41991 95.1875 TD 25 1003 -1 1008 150 40 -8.41991 95.1875 TC 25 9 84
2006094S08087 2006 20 SI WA ELIA 2006-04-09 00:00:00 TS -8.40000 95.6000 main 835 815 O___________O_ jtwc_sh SH222006 -8.40000 95.6000 TD 25 1002 -1 1008 150 40 -8.40000 95.6000 TC 25 8 92
2006094S08087 2006 20 SI WA ELIA 2006-04-09 03:00:00 TS -8.45502 96.0324 main 825 812 P___________P_ SH222006 -8.45502 96.0324 TD 25 1002 -1 1007 150 40 -8.45502 96.0324 TC 25 7 106
2006094S08087 2006 20 SI WA ELIA 2006-04-09 06:00:00 TS -8.60000 96.3000 main 822 822 O___________O_ jtwc_sh SH222006 -8.60000 96.3000 TD 25 1002 -1 1007 150 40 -8.60000 96.3000 TC 25 5 149
2006094S08087 2006 20 SI WA ELIA 2006-04-09 09:00:00 TS -8.87243 96.2901 main 853 853 P___________P_ SH222006 -8.87243 96.2901 TD 25 1002 -1 1007 150 40 -8.87243 96.2901 TC 25 5 202
2006094S08087 2006 20 SI WA ELIA 2006-04-09 12:00:00 TS -9.10000 96.1000 main 882 882 O___________O_ jtwc_sh SH222006 -9.10000 96.1000 TD 25 1002 -1 1007 150 40 -9.10000 96.1000 TC 25 5 245
2006094S08087 2006 20 SI WA ELIA 2006-04-09 15:00:00 TS -9.07253 95.8649 main 891 885 P___________P_ SH222006 -9.07253 95.8649 TD 27 1001 -1 1007 150 40 -9.07253 95.8649 TC 27 5 281
2006094S08087 2006 20 SI WA ELIA 2006-04-09 18:00:00 TS -9.00000 95.6000 main 895 895 O___________O_ jtwc_sh SH222006 -9.00000 95.6000 TD 30 1000 -1 1007 150 40 -9.00000 95.6000 TC 30 5 271
2006094S08087 2006 20 SI WA ELIA 2006-04-09 21:00:00 TS -9.06250 95.3775 main 914 914 P___________P_ SH222006 -9.06250 95.3775 TD 30 1000 -1 1007 150 40 -9.06250 95.3775 TC 30 4 243
2006094S08087 2006 20 SI WA ELIA 2006-04-10 00:00:00 TS -9.20000 95.2000 main 934 934 O___________O_ jtwc_sh SH222006 -9.20000 95.2000 TD 30 1000 -1 1007 150 40 -9.20000 95.2000 TC 30 5 225
2006094S08087 2006 20 SI WA ELIA 2006-04-10 03:00:00 TS -9.39248 95.0476 main 964 964 P___________P_ SH222006 -9.39248 95.0476 TD 30 1000 -1 1007 165 40 -9.39248 95.0476 TC 30 4 191
2006094S08087 2006 20 SI WA ELIA 2006-04-10 06:00:00 TS -9.60000 95.1222 main 979 974 O____O______O_ jtwc_sh SH222006 -9.60000 95.0000 TD 30 1000 -1 1008 180 40 -9.60000 96.1000 2 25 1005 1.50000 1.50000 -9.60000 95.0000 TC 30 9 4 150
2006094S08087 2006 20 SI WA ELIA 2006-04-10 09:00:00 TS -9.74656 95.2520 main 979 979 P____P______P_ SH222006 -9.74253 95.1574 TD 30 1000 -1 1008 180 40 -9.76267 95.6301 2 25 1005 -9.74253 95.1574 TC 30 3 154
2006094S08087 2006 20 SI WA ELIA 2006-04-10 12:00:00 TS -9.90000 95.2727 main 1000 1000 O____O______O_ jtwc_sh SH222006 -9.90000 95.3000 TD 30 1000 -1 1008 180 40 -9.90000 95.2000 2 25 1005 1.50000 1.50000 -9.90000 95.3000 TC 30 9 4 206
2006094S08087 2006 20 SI WA ELIA 2006-04-10 15:00:00 TS -10.0900 95.0750 main 1029 1029 P____P______P_ SH222006 -10.1350 95.1951 TD 30 1000 -1 1008 155 40 -9.99991 94.8349 2 25 1005 -10.1350 95.1951 TC 30 6 227
2006094S08087 2006 20 SI WA ELIA 2006-04-10 18:00:00 TS -10.3000 94.8333 main 1064 1064 O____O______O_ jtwc_sh SH222006 -10.4000 95.0000 TD 30 1000 -1 1008 130 40 -10.1000 94.5000 2 25 1005 1.50000 1.50000 -10.4000 95.0000 TC 30 9 6 224
2006094S08087 2006 20 SI WA ELIA 2006-04-10 21:00:00 TS -10.5316 94.6392 main 1094 1094 P____P______P_ SH222006 -10.6724 94.8875 TD 30 1000 -1 1008 135 40 -10.2500 94.1425 2 25 1005 -10.6724 94.8875 TC 30 6 225
2006094S08087 2006 20 SI WA ELIA 2006-04-11 00:00:00 TS -10.7333 94.4000 main 1124 1124 O____O______O_ jtwc_sh SH222006 -10.9000 94.7000 TD 30 1000 -1 1008 140 40 -10.4000 93.8000 2 25 1005 1.50000 1.50000 -10.9000 94.7000 TC 30 9 7 241
2006094S08087 2006 20 SI WA ELIA 2006-04-11 03:00:00 TS -10.8509 94.0533 main 1159 1159 P____P______P_ SH222006 -11.0225 94.3450 TD 30 1000 -1 1007 150 40 -10.5075 93.4700 2 25 1004 -11.0225 94.3450 TC 30 7 254
2006094S08087 2006 20 SI WA ELIA 2006-04-11 06:00:00 TS -10.9333 93.6667 main 1180 1180 O____O______O_ jtwc_sh SH222006 -11.1000 93.9000 TD 30 1000 -1 1007 160 40 -10.6000 93.2000 2 25 1004 1.50000 1.50000 -11.1000 93.9000 TC 30 9 7 257
2006094S08087 2006 20 SI WA ELIA 2006-04-11 09:00:00 TS -11.0158 93.3116 main 1211 1211 P____P______P_ SH222006 -11.1926 93.4350 TD 30 1000 -1 1007 160 40 -10.6624 93.0648 2 25 1003 -11.1926 93.4350 TC 30 7 254
2006094S08087 2006 20 SI WA ELIA 2006-04-11 12:00:00 TS -11.1333 92.9667 main 1238 1238 O____O______O_ jtwc_sh SH222006 -11.3000 93.0000 TD 30 1000 -1 1007 160 40 -10.8000 92.9000 2 25 1003 1.50000 1.50000 -11.3000 93.0000 TC 30 9 7 245
2006094S08087 2006 20 SI WA ELIA 2006-04-11 15:00:00 TS -11.3250 92.6258 main 1281 1281 P____P______P_ SH222006 -11.4274 92.6699 TD 30 1000 -1 1007 160 40 -11.1201 92.5376 2 25 1002 -11.4274 92.6699 TC 30 8 236
2006094S08087 2006 20 SI WA ELIA 2006-04-11 18:00:00 TS -11.5667 92.3000 main 1327 1327 O____O______O_ jtwc_sh SH222006 -11.6000 92.4000 TD 30 1000 -1 1007 160 40 -11.5000 92.1000 2 25 1001 2.00000 2.00000 -11.6000 92.4000 TC 30 9 8 230
2006094S08087 2006 20 SI WA ELIA 2006-04-11 21:00:00 TS -11.8458 91.9850 main 1364 1364 P____P______P_ SH222006 -11.8499 92.1500 TD 30 1000 -1 1007 160 40 -11.8376 91.6551 2 27 999 -11.8499 92.1500 TC 30 8 228
2006094S08087 2006 20 SI WA ELIA 2006-04-12 00:00:00 TS -12.1000 91.7000 main 1410 1410 O____O______O_ jtwc_sh SH222006 -12.1000 91.9000 TD 30 1000 -1 1007 160 40 -12.1000 91.3000 2 30 998 2.50000 2.50000 -12.1000 91.9000 TC 30 9 7 232
2006094S08087 2006 20 SI WA ELIA 2006-04-12 03:00:00 TS -12.2458 91.4541 main 1431 1431 P____P______P_ SH222006 -12.2575 91.5924 TD 30 1000 -1 1007 170 40 -12.2224 91.1773 2 30 998 -12.2575 91.5924 TC 30 5 240
2006094S08087 2006 20 SI WA ELIA 2006-04-12 06:00:00 TS -12.3667 91.2333 main 1469 1469 O____O______O_ jtwc_sh SH222006 -12.4000 91.3000 TD 30 1000 -1 1007 180 40 -12.3000 91.1000 2 30 998 2.50000 2.50000 -12.4000 91.3000 TC 30 9 5 234
2006094S08087 2006 20 SI WA ELIA 2006-04-12 09:00:00 TS -12.5550 91.0142 main 1499 1499 P____P______P_ SH222006 -12.6074 91.0925 TD 32 998 -1 1007 180 35 -12.4501 90.8576 2 30 998 -12.6074 91.0925 TC 32 6 229
2006094S08087 2006 20 SI WA ELIA 2006-04-12 12:00:00 TS -12.7333 90.8000 main 1521 1521 O____O______O_ jtwc_sh SH222006 -12.8000 90.9000 TS 35 997 0 1007 180 30 -12.6000 90.6000 2 30 998 2.50000 2.50000 -12.8000 90.9000 TC 35 9 5 236
2006094S08087 2006 20 SI WA ELIA 2006-04-12 15:00:00 TS -12.8483 90.5708 main 1543 1543 P____P______P_ SH222006 -12.9150 90.6425 TS 35 997 0 1007 170 30 -12.7150 90.4275 2 30 998 -12.9150 90.6425 TC 35 5 245
2006094S08087 2006 20 SI WA ELIA 2006-04-12 18:00:00 TS -12.9333 90.3667 main 1565 1565 O____O______O_ jtwc_sh SH222006 -13.0000 90.4000 TS 35 997 0 1007 160 30 -12.8000 90.3000 2 30 998 2.50000 2.50000 18 -13.0000 90.4000 TC 35 9 4 243
2006094S08087 2006 20 SI WA ELIA 2006-04-12 21:00:00 TS -13.0191 90.2258 main 1587 1587 P____P______P_ SH222006 -13.1075 90.2350 TS 37 995 0 1006 125 30 -12.8425 90.2074 2 30 998 17 -13.1075 90.2350 TC 37 3 237
2006094S08087 2006 20 SI WA ELIA 2006-04-13 00:00:00 TS -13.1000 90.1000 main 1603 1603 O____O______O_ jtwc_sh SH222006 -13.2000 90.1000 TS 40 994 0 60 70 70 60 1006 90 30 -12.9000 90.1000 2 30 998 2.50000 2.50000 16 -13.2000 90.1000 TC 40 9 3 239
2006094S08087 2006 20 SI MM ELIA 2006-04-13 03:00:00 TS -13.1908 89.9333 main 1625 1625 P____P______P_ SH222006 -13.2650 89.9500 TS 42 992 0 60 70 70 60 1006 90 30 -13.0425 89.9001 2 32 996 14 -13.2650 89.9500 TC 42 4 243
2006094S08087 2006 20 SI MM ELIA 2006-04-13 06:00:00 TS -13.2667 89.7667 35 995 reunion main 1641 1641 O____O______O_ jtwc_sh SH222006 -13.3000 89.8000 TS 45 991 0 60 70 70 60 1006 90 30 -13.2000 89.7000 3 35 995 2.50000 2.50000 13 26 64 53 21 -13.3000 89.8000 TC 45 9 3 250
2006094S08087 2006 20 SI MM ELIA 2006-04-13 09:00:00 TS -13.3000 89.6283 main 1654 1654 P____P______P_ SH222006 -13.2925 89.6425 TS 45 991 0 60 70 70 60 1006 90 30 -13.3149 89.6000 3 36 993 13 26 72 58 23 -13.2925 89.6425 TC 45 3 256
2006094S08087 2006 20 SI MM ELIA 2006-04-13 12:00:00 TS -13.3333 89.5000 38 992 reunion main 1661 1661 O____O______O_ jtwc_sh SH222006 -13.3000 89.5000 TS 45 991 0 60 70 70 60 1006 90 30 -13.4000 89.5000 3 38 992 3.00000 3.00000 13 26 80 64 26 -13.3000 89.5000 TC 45 9 3 249
2006094S08087 2006 20 SI MM ELIA 2006-04-13 15:00:00 TS -13.3992 89.3667 main 1677 1677 P____P______P_ SH222006 -13.3775 89.3925 TS 45 991 0 55 70 70 55 1006 95 27 -13.4425 89.3149 3 39 991 13 26 77 64 26 -13.3775 89.3925 TC 45 3 237
2006094S08087 2006 20 SI MM ELIA 2006-04-13 18:00:00 TS -13.5000 89.2333 40 990 reunion main 1699 1699 O____O______O_ jtwc_sh SH222006 -13.5000 89.3000 TS 45 991 0 50 70 70 50 1006 100 25 -13.5000 89.1000 3 40 990 3.00000 3.00000 13 26 75 64 26 -13.5000 89.3000 TC 45 9 3 226
2006094S08087 2006 20 SI MM ELIA 2006-04-13 21:00:00 TS -13.6400 89.1100 main 1715 1715 P____P______P_ SH222006 -13.6350 89.2150 TS 45 991 0 50 70 70 50 1006 100 25 -13.6500 88.9000 3 40 990 14 26 72 61 26 -13.6350 89.2150 TC 45 4 221
2006094S08087 2006 20 SI MM ELIA 2006-04-14 00:00:00 TS -13.8000 88.9667 40 990 reunion main 1739 1739 O____O______O_ jtwc_sh SH222006 -13.8000 89.1000 TS 45 991 0 50 70 70 50 1006 100 25 -13.8000 88.7000 3 40 990 3.00000 3.00000 16 26 70 59 26 -13.8000 89.1000 TC 45 9 4 226
2006094S08087 2006 20 SI MM ELIA 2006-04-14 03:00:00 TS -13.9500 88.7791 main 1761 1761 P____P______P_ SH222006 -13.9925 88.9225 TS 47 989 0 57 70 70 52 1006 100 25 -13.8650 88.4925 3 40 990 16 23 70 53 23 -13.9925 88.9225 TC 47 5 232
2006094S08087 2006 20 SI MM ELIA 2006-04-14 06:00:00 TS -14.1000 88.5667 40 990 reunion main 1792 1792 O____O______O_ jtwc_sh SH222006 -14.2000 88.7000 TS 50 987 0 65 70 70 55 1006 100 25 -13.9000 88.3000 3 40 990 3.00000 3.00000 16 21 70 48 21 -14.2000 88.7000 TC 50 9 5 233
2006094S08087 2006 20 SI MM ELIA 2006-04-14 09:00:00 TS -14.2474 88.3749 main 1815 1815 P____P______P_ SH222006 -14.4074 88.4725 TS 50 986 0 62 70 70 55 1006 100 22 -13.9274 88.1799 3 39 991 17 21 70 42 10 -14.4074 88.4725 TC 50 5 234
2006094S08087 2006 20 SI MM ELIA 2006-04-14 12:00:00 TS -14.4000 88.1333 38 992 reunion main 1853 1853 O____O______O_ jtwc_sh SH222006 -14.6000 88.2000 TS 50 985 0 60 70 70 55 25 25 25 25 1006 100 20 -14.0000 88.0000 3 38 992 2.50000 3.00000 18 21 70 37 0 -14.6000 88.2000 TC 50 9 7 240
2006094S08087 2006 20 SI MM ELIA 2006-04-14 15:00:00 TS -14.5692 87.7892 main 1891 1891 P____P______P_ SH222006 -14.7650 87.8650 TS 50 985 0 60 70 70 55 25 25 25 25 1006 100 20 -14.1776 87.6376 3 38 992 18 10 67 37 0 -14.7650 87.8650 TC 50 8 245
2006094S08087 2006 20 SI MM ELIA 2006-04-14 18:00:00 TS -14.7333 87.4000 38 992 reunion main 1928 1928 O____O______O_ jtwc_sh SH222006 -14.9000 87.5000 TS 50 985 0 60 70 70 55 25 25 25 25 1006 100 20 -14.4000 87.2000 3 38 992 2.50000 3.00000 18 0 64 37 0 -14.9000 87.5000 TC 50 9 8 247
2006094S08087 2006 20 SI MM ELIA 2006-04-14 21:00:00 TS -14.8791 87.0258 main 1973 1973 P____P______P_ SH222006 -15.0149 87.1500 TS 47 988 0 57 70 62 55 1006 95 20 -14.6075 86.7775 3 36 993 19 0 58 37 0 -15.0149 87.1500 TC 47 8 249
2006094S08087 2006 20 SI MM ELIA 2006-04-15 00:00:00 TS -15.0000 86.6667 35 995 reunion main 2003 2003 O____O______O_ jtwc_sh SH222006 -15.1000 86.8000 TS 45 991 0 55 70 55 55 1006 90 20 -14.8000 86.4000 3 35 995 2.50000 2.50000 21 0 53 37 0 -15.1000 86.8000 TC 45 9 7 253
2006094S08087 2006 20 SI MM ELIA 2006-04-15 03:00:00 TS -15.0758 86.3424 main 2041 2041 P____P______P_ SH222006 -15.1424 86.4499 TS 40 994 0 55 70 55 55 1007 90 25 -14.9424 86.1273 3 32 996 21 -15.1424 86.4499 TC 40 6 255
2006094S08087 2006 20 SI MM ELIA 2006-04-15 06:00:00 TS -15.1667 86.0333 30 997 reunion main 2071 2071 O____O______O_ jtwc_sh SH222006 -15.2000 86.1000 TS 35 997 0 55 70 55 55 1009 90 30 -15.1000 85.9000 2 30 997 2.50000 2.50000 21 -15.2000 86.1000 TC 35 9 7 248
2006094S08087 2006 20 SI MM ELIA 2006-04-15 09:00:00 TS -15.3250 85.7141 main 2102 2102 P____P______P_ SH222006 -15.3200 85.7425 TS 35 997 0 55 70 55 55 1009 90 30 -15.3349 85.6575 2 30 997 21 -15.3200 85.7425 TC 35 7 239
2006094S08087 2006 20 SI MM ELIA 2006-04-15 12:00:00 TS -15.5333 85.4000 30 997 reunion main 2141 2141 O____O______O_ jtwc_sh SH222006 -15.5000 85.4000 TS 35 997 0 55 70 55 55 1009 90 30 -15.6000 85.4000 2 30 997 2.50000 2.50000 21 -15.5000 85.4000 TC 35 9 7 234
2006094S08087 2006 20 SI MM ELIA 2006-04-15 15:00:00 TS -15.7558 85.0899 main 2187 2187 P____P______P_ SH222006 -15.7125 85.0775 TS 32 998 -1 -15.8425 85.1149 2 30 997 21 -15.7125 85.0775 TC 32 8 229
2006094S08087 2006 20 SI MM ELIA 2006-04-15 18:00:00 TS -16.0333 84.8000 30 998 reunion main 2226 2226 O____O______O_ jtwc_sh SH222006 -16.0000 84.8000 TD 30 1000 -1 -16.1000 84.8000 2 30 998 2.00000 2.50000 21 -16.0000 84.8000 TC 30 9 8 218
2006094S08087 2006 20 SI MM ELIA 2006-04-15 21:00:00 TS -16.3974 84.5624 main 2272 2272 P____P______P_ SH222006 -16.3998 84.6148 TD 30 1000 -1 -16.3925 84.4575 2 29 998 -16.3998 84.6148 TC 30 9 213
2006094S08087 2006 20 SI MM ELIA 2006-04-16 00:00:00 TS -16.7667 84.3000 28 999 reunion main 2327 2327 O____O______O_ jtwc_sh SH222006 -16.8000 84.4000 TD 30 1000 -1 -16.7000 84.1000 2 28 999 2.00000 2.50000 -16.8000 84.4000 TC 30 9 9 222
2006094S08087 2006 20 SI MM ELIA 2006-04-16 03:00:00 TS -17.0583 83.9366 main 2380 2380 P____P______P_ SH222006 -17.0800 84.0374 TD 27 1001 -1 -17.0150 83.7350 2 26 1000 -17.0800 84.0374 TC 27 9 234
2006094S08087 2006 20 SI MM ELIA 2006-04-16 06:00:00 TS -17.3000 83.5200 25 1001 reunion main 2426 2426 O____O______O_ jtwc_sh SH222006 -17.3000 83.6000 TD 25 1002 -1 -17.3000 83.4000 2 25 1001 1.50000 2.00000 -17.3000 83.6000 TC 25 9 9 239
2006094S08087 2006 20 SI MM ELIA 2006-04-16 09:00:00 TS -17.5125 83.1425 main 2472 2472 P____P______P_ SH222006 -17.5027 83.1502 TD 25 1002 -1 -17.5224 83.1349 2 25 1002 -17.5027 83.1502 TC 25 8 239
2006094S08087 2006 20 SI MM ELIA 2006-04-16 12:00:00 TS -17.7000 82.8333 25 1003 reunion main 2511 2511 O____O______O_ jtwc_sh SH222006 -17.7000 82.7000 TD 25 1002 -1 -17.7000 82.9000 2 25 1003 1.50000 2.00000 -17.7000 82.7000 TC 25 9 6 240
2006094S08087 2006 20 SI MM ELIA 2006-04-16 15:00:00 TS -17.8051 82.6125 main 2534 2534 _____P________ SH222006 TD -1 -17.8051 82.6125 2 24 1003 TC 5 234
2006094S08087 2006 20 SI MM ELIA 2006-04-16 18:00:00 TS -18.0000 82.4000 23 1004 reunion main 2565 2565 _____O________ -18.0000 82.4000 6 23 1004 1.50000 1.50000 9 7 203
2006094S08087 2006 20 SI MM ELIA 2006-04-16 21:00:00 TS -18.4100 82.3401 main 2576 2573 _____P________ -18.4100 82.3401 6 21 1005 10 179
2006094S08087 2006 20 SI MM ELIA 2006-04-17 00:00:00 TS -19.0000 82.4000 20 1006 reunion main 2577 2573 _____O________ -19.0000 82.4000 6 20 1006 9.90000 9 13 172
2006094S08087 2006 20 SI MM ELIA 2006-04-17 03:00:00 TS -19.7176 82.5321 main 2579 2578 _____P________ -19.7176 82.5321 6 20 1007 15 169
2006094S08087 2006 20 SI MM ELIA 2006-04-17 06:00:00 TS -20.5000 82.7000 20 1008 reunion main 2592 _____O________ -20.5000 82.7000 6 20 1008 9.90000 9 16 169

IBTrACS Databaseについて

本データベースは、米国NOAAが公開する1842年以降の世界の熱帯低気圧のベストトラックデータアーカイブInternational Best Track Archive for Climate Stewardship (IBTrACS)を、ウェブで閲覧しやすい形式に変換したものです。

最終更新日:2021-10-25